createdAt,value
2019-06-07T00:01:23.280Z,13.60
2019-06-07T00:03:53.442Z,13.50
2019-06-07T00:06:25.397Z,13.40
2019-06-07T00:08:55.087Z,13.60
2019-06-07T00:11:25.091Z,13.60
2019-06-07T00:13:56.865Z,13.20
2019-06-07T00:16:26.813Z,13.20
2019-06-07T00:18:57.818Z,13.10
2019-06-07T00:22:12.650Z,13.20
2019-06-07T00:23:59.582Z,13.10
2019-06-07T00:26:29.451Z,13.10
2019-06-07T00:28:59.414Z,13.10
2019-06-07T00:31:29.366Z,13.10
2019-06-07T00:33:59.411Z,13.20
2019-06-07T00:36:29.486Z,13.20
2019-06-07T00:38:59.707Z,13.20
2019-06-07T00:41:31.205Z,13.10
2019-06-07T00:44:01.252Z,13.10
2019-06-07T00:46:31.497Z,13.10
2019-06-07T00:49:01.624Z,13.10
2019-06-07T00:51:49.482Z,13.20
2019-06-07T00:54:04.141Z,13.20
2019-06-07T00:56:34.145Z,13.30
2019-06-07T00:59:11.121Z,13.10
2019-06-07T01:01:35.862Z,13.00
2019-06-07T01:04:05.904Z,12.90
2019-06-07T01:06:35.901Z,12.90
2019-06-07T01:09:07.848Z,12.90
2019-06-07T01:11:37.902Z,12.90
2019-06-07T01:14:08.136Z,13.00
2019-06-07T01:16:56.357Z,13.00
2019-06-07T01:19:09.804Z,13.10
2019-06-07T01:21:39.708Z,12.90
2019-06-07T01:24:12.458Z,12.80
2019-06-07T01:26:41.666Z,12.80
2019-06-07T01:29:11.682Z,12.80
2019-06-07T01:31:41.867Z,12.70
2019-06-07T01:34:11.917Z,12.70
2019-06-07T01:36:41.815Z,12.60
2019-06-07T01:39:11.870Z,12.50
2019-06-07T01:41:41.747Z,12.50
2019-06-07T01:44:11.788Z,12.50
2019-06-07T01:46:41.725Z,12.60
2019-06-07T01:49:11.755Z,12.40
2019-06-07T01:51:41.666Z,12.40
2019-06-07T01:54:49.423Z,12.40
2019-06-07T01:56:44.369Z,12.50
2019-06-07T01:59:14.383Z,12.40
2019-06-07T02:01:44.262Z,12.30
2019-06-07T02:04:14.314Z,12.50
2019-06-07T02:06:44.254Z,12.40
2019-06-07T02:09:14.218Z,12.50
2019-06-07T02:11:44.051Z,12.50
2019-06-07T02:14:14.014Z,12.50
2019-06-07T02:16:44.150Z,12.50
2019-06-07T02:19:14.225Z,12.40
2019-06-07T02:21:44.563Z,12.30
2019-06-07T02:24:14.632Z,12.30
2019-06-07T02:26:44.699Z,12.20
2019-06-07T02:29:14.649Z,12.30
2019-06-07T02:31:44.894Z,12.40
2019-06-07T02:34:14.893Z,12.30
2019-06-07T02:36:45.567Z,12.50
2019-06-07T02:39:16.024Z,12.30
2019-06-07T02:41:46.185Z,12.20
2019-06-07T02:44:16.189Z,12.20
2019-06-07T02:46:49.630Z,12.10
2019-06-07T02:49:18.087Z,12.00
2019-06-07T02:51:48.084Z,12.10
2019-06-07T02:54:18.158Z,12.20
2019-06-07T02:56:57.835Z,12.20
2019-06-07T02:59:42.191Z,11.90
2019-06-07T03:01:52.550Z,11.80
2019-06-07T03:04:23.031Z,11.80
2019-06-07T03:06:54.575Z,12.00
2019-06-07T03:09:28.833Z,11.90
2019-06-07T03:12:00.580Z,11.70
2019-06-07T03:14:35.485Z,11.70
2019-06-07T03:17:13.449Z,11.70
2019-06-07T03:19:46.425Z,11.50
2019-06-07T03:22:16.317Z,11.50
2019-06-07T03:24:46.660Z,11.60
2019-06-07T03:27:35.094Z,11.50
2019-06-07T03:29:48.436Z,11.60
2019-06-07T03:32:18.346Z,11.50
2019-06-07T03:34:48.284Z,11.50
2019-06-07T03:37:18.427Z,11.50
2019-06-07T03:39:48.246Z,11.60
2019-06-07T03:42:18.076Z,11.50
2019-06-07T03:44:48.023Z,11.40
2019-06-07T03:47:18.599Z,11.50
2019-06-07T03:49:48.489Z,11.40
2019-06-07T03:52:18.465Z,11.40
2019-06-07T03:54:48.351Z,11.60
2019-06-07T03:57:18.170Z,11.60
2019-06-07T03:59:48.146Z,11.60
2019-06-07T04:02:18.133Z,11.60
2019-06-07T04:04:48.093Z,11.80
2019-06-07T04:07:18.075Z,11.60
2019-06-07T04:09:48.219Z,11.60
2019-06-07T04:12:18.416Z,11.70
2019-06-07T04:14:48.548Z,11.60
2019-06-07T04:17:18.653Z,11.60
2019-06-07T04:19:48.953Z,11.60
2019-06-07T04:22:19.074Z,11.50
2019-06-07T04:24:49.044Z,11.50
2019-06-07T04:27:19.132Z,11.50
2019-06-07T04:30:06.689Z,11.50
2019-06-07T04:32:20.890Z,11.50
2019-06-07T04:34:50.868Z,11.50
2019-06-07T04:37:21.409Z,11.60
2019-06-07T04:39:51.862Z,11.70
2019-06-07T04:42:22.253Z,11.60
2019-06-07T04:44:53.182Z,11.80
2019-06-07T04:47:26.750Z,11.80
2019-06-07T04:49:58.167Z,11.80
2019-06-07T04:52:29.945Z,11.80
2019-06-07T04:55:00.009Z,11.90
2019-06-07T04:57:32.031Z,12.00
2019-06-07T05:00:12.760Z,12.10
2019-06-07T05:02:36.777Z,12.20
2019-06-07T05:05:05.294Z,12.20
2019-06-07T05:07:37.155Z,12.30
2019-06-07T05:10:06.850Z,12.30
2019-06-07T05:12:43.062Z,12.40
2019-06-07T05:15:08.497Z,12.50
2019-06-07T05:17:42.526Z,12.60
2019-06-07T05:20:10.291Z,12.70
2019-06-07T05:22:44.912Z,12.70
2019-06-07T05:25:12.005Z,12.70
2019-06-07T05:27:46.653Z,12.70
2019-06-07T05:30:57.894Z,12.80
2019-06-07T05:32:46.255Z,12.80
2019-06-07T05:35:16.565Z,12.90
2019-06-07T05:37:46.582Z,13.00
2019-06-07T05:40:21.403Z,13.10
2019-06-07T05:42:52.734Z,13.10
2019-06-07T05:45:32.331Z,13.10
2019-06-07T05:48:03.062Z,13.10
2019-06-07T05:50:42.382Z,13.20
2019-06-07T05:53:05.487Z,13.30
2019-06-07T05:55:37.666Z,13.40
2019-06-07T05:58:07.199Z,13.50
2019-06-07T06:00:38.888Z,13.50
2019-06-07T06:03:08.853Z,13.70
2019-06-07T06:05:44.986Z,13.70
2019-06-07T06:08:10.655Z,13.70
2019-06-07T06:10:46.124Z,13.70
2019-06-07T06:13:12.316Z,13.80
2019-06-07T06:15:56.326Z,13.90
2019-06-07T06:18:13.827Z,14.00
2019-06-07T06:21:05.353Z,14.10
2019-06-07T06:23:15.467Z,14.20
2019-06-07T06:25:53.544Z,14.20
2019-06-07T06:28:18.364Z,14.30
2019-06-07T06:30:49.948Z,14.40
2019-06-07T06:33:32.964Z,14.40
2019-06-07T06:35:51.858Z,14.50
2019-06-07T06:38:21.734Z,14.50
2019-06-07T06:41:05.264Z,14.60
2019-06-07T06:43:23.433Z,14.70
2019-06-07T06:45:53.429Z,14.90
2019-06-07T06:48:23.571Z,15.00
2019-06-07T06:50:53.540Z,15.00
2019-06-07T06:53:23.485Z,15.00
2019-06-07T06:55:54.520Z,15.20
2019-06-07T06:58:24.505Z,15.20
2019-06-07T07:01:05.745Z,15.40
2019-06-07T07:06:24.269Z,15.60
2019-06-07T07:08:30.106Z,15.60
2019-06-07T07:11:00.022Z,15.70
2019-06-07T07:13:29.962Z,15.70
2019-06-07T07:15:59.941Z,15.90
2019-06-07T07:18:29.911Z,16.10
2019-06-07T07:21:00.095Z,16.30
2019-06-07T07:23:29.958Z,16.30
2019-06-07T07:26:00.316Z,16.40
2019-06-07T07:28:30.536Z,16.50
2019-06-07T07:31:00.480Z,16.40
2019-06-07T07:34:21.127Z,16.60
2019-06-07T07:36:19.076Z,16.80
2019-06-07T07:38:34.097Z,16.70
2019-06-07T07:41:14.648Z,16.70
2019-06-07T07:43:35.581Z,16.90
2019-06-07T07:46:28.060Z,16.80
2019-06-07T07:48:38.311Z,16.90
2019-06-07T07:51:08.252Z,17.00
2019-06-07T07:53:51.890Z,17.00
2019-06-07T07:56:10.110Z,16.90
2019-06-07T07:58:40.142Z,17.10
2019-06-07T08:01:11.329Z,17.10
2019-06-07T08:03:41.543Z,17.30
2019-06-07T08:06:11.623Z,17.40
2019-06-07T08:08:41.448Z,17.50
2019-06-07T08:11:11.419Z,17.60
2019-06-07T08:13:43.115Z,17.50
2019-06-07T08:16:16.742Z,17.80
2019-06-07T08:18:44.862Z,17.80
2019-06-07T08:21:24.557Z,17.80
2019-06-07T08:23:47.667Z,17.80
2019-06-07T08:26:17.997Z,17.80
2019-06-07T08:28:48.428Z,17.90
2019-06-07T08:31:20.392Z,18.10
2019-06-07T08:33:50.409Z,18.10
2019-06-07T08:36:31.494Z,18.20
2019-06-07T08:38:56.977Z,18.20
2019-06-07T08:41:23.616Z,18.20
2019-06-07T08:43:56.451Z,18.00
2019-06-07T08:46:25.340Z,18.10
2019-06-07T08:48:57.173Z,18.10
2019-06-07T08:51:27.048Z,18.10
2019-06-07T08:54:15.908Z,18.10
2019-06-07T08:56:28.836Z,18.20
2019-06-07T08:59:03.042Z,18.30
2019-06-07T09:01:30.549Z,18.50
2019-06-07T09:04:07.607Z,18.40
2019-06-07T09:09:07.044Z,18.50
2019-06-07T09:11:37.348Z,18.90
2019-06-07T09:14:09.158Z,19.10
2019-06-07T09:16:39.933Z,19.20
2019-06-07T09:19:10.856Z,19.30
2019-06-07T09:21:41.231Z,19.30
2019-06-07T09:24:12.165Z,19.40
2019-06-07T09:26:42.258Z,19.30
2019-06-07T09:29:12.455Z,19.50
2019-06-07T09:31:52.798Z,19.50
2019-06-07T09:34:15.546Z,19.40
2019-06-07T09:36:45.729Z,19.50
2019-06-07T09:39:15.729Z,19.50
2019-06-07T09:41:49.914Z,19.70
2019-06-07T09:44:25.113Z,20.00
2019-06-07T09:47:07.982Z,19.90
2019-06-07T09:49:31.425Z,19.80
2019-06-07T09:51:52.526Z,19.80
2019-06-07T09:55:03.819Z,19.80
2019-06-07T09:56:54.061Z,19.90
2019-06-07T09:59:25.217Z,19.80
2019-06-07T10:01:55.418Z,19.80
2019-06-07T10:04:31.325Z,20.20
2019-06-07T10:07:03.982Z,20.20
2019-06-07T10:12:00.579Z,20.10
2019-06-07T10:14:30.604Z,20.30
2019-06-07T10:17:00.888Z,20.70
2019-06-07T10:19:30.912Z,20.50
2019-06-07T10:22:01.442Z,20.70
2019-06-07T10:24:31.450Z,20.30
2019-06-07T10:27:01.793Z,20.90
2019-06-07T10:29:31.806Z,21.20
2019-06-07T10:32:02.265Z,21.40
2019-06-07T10:34:32.406Z,20.80
2019-06-07T10:37:03.323Z,20.50
2019-06-07T10:39:47.745Z,20.80
2019-06-07T10:42:06.385Z,20.90
2019-06-07T10:44:37.622Z,20.90
2019-06-07T10:47:08.174Z,20.70
2019-06-07T10:49:38.416Z,21.10
2019-06-07T10:52:10.391Z,21.00
2019-06-07T10:54:40.949Z,20.80
2019-06-07T10:57:14.575Z,20.80
2019-06-07T10:59:42.485Z,20.60
2019-06-07T11:02:13.951Z,20.70
2019-06-07T11:04:44.058Z,20.80
2019-06-07T11:07:14.454Z,21.40
2019-06-07T11:09:44.481Z,21.30
2019-06-07T11:12:15.323Z,21.40
2019-06-07T11:14:45.648Z,21.30
2019-06-07T11:17:15.949Z,21.20
2019-06-07T11:19:45.989Z,21.40
2019-06-07T11:22:15.934Z,21.50
2019-06-07T11:24:46.274Z,21.50
2019-06-07T11:27:16.568Z,21.60
2019-06-07T11:29:47.814Z,21.60
2019-06-07T11:32:18.868Z,21.80
2019-06-07T11:34:48.854Z,21.90
2019-06-07T11:37:19.147Z,21.80
2019-06-07T11:39:49.106Z,21.80
2019-06-07T11:42:20.067Z,21.90
2019-06-07T11:44:56.817Z,22.20
2019-06-07T11:47:21.937Z,22.40
2019-06-07T11:49:52.168Z,22.00
2019-06-07T11:52:22.174Z,21.90
2019-06-07T11:54:52.125Z,22.10
2019-06-07T11:57:22.142Z,22.20
2019-06-07T11:59:51.957Z,22.70
2019-06-07T12:02:21.905Z,22.70
2019-06-07T12:04:52.133Z,22.90
2019-06-07T12:07:22.686Z,22.80
2019-06-07T12:09:56.531Z,22.90
2019-06-07T12:12:24.573Z,23.10
2019-06-07T12:14:54.466Z,23.10
2019-06-07T12:17:24.509Z,23.40
2019-06-07T12:19:54.802Z,23.10
2019-06-07T12:22:24.776Z,22.90
2019-06-07T12:24:55.068Z,23.50
2019-06-07T12:27:25.259Z,23.50
2019-06-07T12:29:55.148Z,23.70
2019-06-07T12:32:25.010Z,23.70
2019-06-07T12:34:55.238Z,23.90
2019-06-07T12:37:39.643Z,23.90
2019-06-07T12:39:56.966Z,23.60
2019-06-07T12:42:27.304Z,23.50
2019-06-07T12:44:57.253Z,23.40
2019-06-07T12:47:27.293Z,23.40
2019-06-07T12:49:57.307Z,23.50
2019-06-07T12:52:27.128Z,23.60
2019-06-07T12:54:57.142Z,24.00
2019-06-07T12:57:27.604Z,23.60
2019-06-07T12:59:57.558Z,23.50
2019-06-07T13:02:27.560Z,23.50
2019-06-07T13:04:57.418Z,23.70
2019-06-07T13:07:27.981Z,23.70
2019-06-07T13:09:58.246Z,23.90
2019-06-07T13:12:28.315Z,23.80
2019-06-07T13:14:58.354Z,24.10
2019-06-07T13:17:28.613Z,24.10
2019-06-07T13:19:59.038Z,24.60
2019-06-07T13:22:29.034Z,25.00
2019-06-07T13:24:59.668Z,24.80
2019-06-07T13:27:33.328Z,24.50
2019-06-07T13:30:09.860Z,24.80
2019-06-07T13:32:34.735Z,24.50
2019-06-07T13:35:05.047Z,24.40
2019-06-07T13:37:35.007Z,24.40
2019-06-07T13:40:05.388Z,24.40
2019-06-07T13:42:35.356Z,24.10
2019-06-07T13:45:06.851Z,24.10
2019-06-07T13:47:36.868Z,24.50
2019-06-07T13:50:07.674Z,24.60
2019-06-07T13:52:37.885Z,24.40
2019-06-07T13:55:08.759Z,24.40
2019-06-07T13:57:38.698Z,24.50
2019-06-07T14:00:11.105Z,24.80
2019-06-07T14:02:41.425Z,24.80
2019-06-07T14:05:11.753Z,24.60
2019-06-07T14:07:41.958Z,24.70
2019-06-07T14:10:12.394Z,24.70
2019-06-07T14:12:42.419Z,24.80
2019-06-07T14:15:13.878Z,25.00
2019-06-07T14:17:44.096Z,25.20
2019-06-07T14:20:14.398Z,24.80
2019-06-07T14:22:45.144Z,24.60
2019-06-07T14:25:15.080Z,24.50
2019-06-07T14:27:44.879Z,24.50
2019-06-07T14:30:15.066Z,24.60
2019-06-07T14:32:45.368Z,24.50
2019-06-07T14:35:16.897Z,24.60
2019-06-07T14:37:46.938Z,24.30
2019-06-07T14:40:17.375Z,24.50
2019-06-07T14:42:47.616Z,24.50
2019-06-07T14:45:18.192Z,24.60
2019-06-07T14:47:48.197Z,24.70
2019-06-07T14:50:18.578Z,25.00
2019-06-07T14:52:49.066Z,25.00
2019-06-07T14:55:19.281Z,24.80
2019-06-07T14:57:49.356Z,24.80
2019-06-07T15:00:19.352Z,25.00
2019-06-07T15:02:49.634Z,25.30
2019-06-07T15:05:23.303Z,24.80
2019-06-07T15:07:53.293Z,25.00
2019-06-07T15:10:23.407Z,24.80
2019-06-07T15:12:53.346Z,24.80
2019-06-07T15:15:23.479Z,24.80
2019-06-07T15:17:53.366Z,25.40
2019-06-07T15:20:23.655Z,25.00
2019-06-07T15:22:53.513Z,25.30
2019-06-07T15:25:23.540Z,25.50
2019-06-07T15:27:53.574Z,25.50
2019-06-07T15:30:23.632Z,25.40
2019-06-07T15:32:53.561Z,25.80
2019-06-07T15:35:23.713Z,25.80
2019-06-07T15:37:53.523Z,25.60
2019-06-07T15:40:23.570Z,25.70
2019-06-07T15:42:53.547Z,25.80
2019-06-07T15:45:23.573Z,25.60
2019-06-07T15:47:53.505Z,25.50
2019-06-07T15:50:23.716Z,25.60
2019-06-07T15:52:53.933Z,25.40
2019-06-07T15:55:24.650Z,25.40
2019-06-07T15:57:55.048Z,25.20
2019-06-07T16:00:25.282Z,25.00
2019-06-07T16:02:55.252Z,25.00
2019-06-07T16:05:25.331Z,24.90
2019-06-07T16:07:55.305Z,24.80
2019-06-07T16:10:25.413Z,24.70
2019-06-07T16:13:00.553Z,24.50
2019-06-07T16:15:27.580Z,24.60
2019-06-07T16:17:57.565Z,25.00
2019-06-07T16:20:27.506Z,25.40
2019-06-07T16:22:57.394Z,25.50
2019-06-07T16:25:27.447Z,25.50
2019-06-07T16:27:57.463Z,25.50
2019-06-07T16:30:27.773Z,25.40
2019-06-07T16:32:57.738Z,24.90
2019-06-07T16:35:28.019Z,24.60
2019-06-07T16:37:57.982Z,24.30
2019-06-07T16:40:27.930Z,24.10
2019-06-07T16:43:13.355Z,23.90
2019-06-07T16:45:29.840Z,23.90
2019-06-07T16:48:00.117Z,24.00
2019-06-07T16:50:30.329Z,24.20
2019-06-07T16:53:00.344Z,23.90
2019-06-07T16:55:30.371Z,23.90
2019-06-07T16:58:00.340Z,23.70
2019-06-07T17:00:30.290Z,23.90
2019-06-07T17:03:00.208Z,24.20
2019-06-07T17:05:30.247Z,24.60
2019-06-07T17:08:01.282Z,24.90
2019-06-07T17:10:31.296Z,24.90
2019-06-07T17:13:01.585Z,25.00
2019-06-07T17:15:31.553Z,25.30
2019-06-07T17:18:01.499Z,25.00
2019-06-07T17:20:32.430Z,25.20
2019-06-07T17:23:02.430Z,25.20
2019-06-07T17:25:32.686Z,25.50
2019-06-07T17:28:02.657Z,25.20
2019-06-07T17:30:32.676Z,25.10
2019-06-07T17:33:02.622Z,25.00
2019-06-07T17:35:32.675Z,24.70
2019-06-07T17:38:02.635Z,24.40
2019-06-07T17:40:32.579Z,24.00
2019-06-07T17:43:02.625Z,23.70
2019-06-07T17:45:32.445Z,23.40
2019-06-07T17:48:02.729Z,23.20
2019-06-07T17:50:32.642Z,23.20
2019-06-07T17:53:02.964Z,23.10
2019-06-07T17:55:33.049Z,23.10
2019-06-07T17:58:03.261Z,23.00
2019-06-07T18:00:51.007Z,22.90
2019-06-07T18:03:21.632Z,22.90
2019-06-07T18:05:53.604Z,22.90
2019-06-07T18:08:24.902Z,22.90
2019-06-07T18:10:54.848Z,22.80
2019-06-07T18:13:24.810Z,22.70
2019-06-07T18:15:59.264Z,22.10
2019-06-07T18:18:27.464Z,20.50
2019-06-07T18:20:57.674Z,19.90
2019-06-07T18:23:27.630Z,19.70
2019-06-07T18:25:58.553Z,19.70
2019-06-07T18:28:28.782Z,19.60
2019-06-07T18:30:59.011Z,19.50
2019-06-07T18:33:29.091Z,19.40
2019-06-07T18:35:59.501Z,18.70
2019-06-07T18:38:29.443Z,17.60
2019-06-07T18:40:59.630Z,17.20
2019-06-07T18:43:30.587Z,17.00
2019-06-07T18:46:00.487Z,16.80
2019-06-07T18:48:30.447Z,16.50
2019-06-07T18:51:00.363Z,16.30
2019-06-07T18:53:30.288Z,16.20
2019-06-07T18:56:00.257Z,16.10
2019-06-07T18:58:30.257Z,15.90
2019-06-07T19:01:00.246Z,15.90
2019-06-07T19:03:31.256Z,15.90
2019-06-07T19:06:01.140Z,15.80
2019-06-07T19:08:31.352Z,15.60
2019-06-07T19:11:01.516Z,15.60
2019-06-07T19:13:31.497Z,15.40
2019-06-07T19:16:01.495Z,15.20
2019-06-07T19:18:31.515Z,15.10
2019-06-07T19:21:01.516Z,15.00
2019-06-07T19:23:31.322Z,14.90
2019-06-07T19:26:01.202Z,14.90
2019-06-07T19:28:31.148Z,14.80
2019-06-07T19:31:01.376Z,14.90
2019-06-07T19:33:31.344Z,14.90
2019-06-07T19:36:01.806Z,15.10
2019-06-07T19:38:31.873Z,15.40
2019-06-07T19:41:16.475Z,15.80
2019-06-07T19:43:33.345Z,15.80
2019-06-07T19:46:03.310Z,15.70
2019-06-07T19:48:33.262Z,15.80
2019-06-07T19:51:03.266Z,15.90
2019-06-07T19:53:33.192Z,15.80
2019-06-07T19:56:03.550Z,15.80
2019-06-07T19:58:33.549Z,15.90
2019-06-07T20:01:04.737Z,15.80
2019-06-07T20:03:35.875Z,15.90
2019-06-07T20:06:06.127Z,15.80
2019-06-07T20:08:36.102Z,15.80
2019-06-07T20:11:06.152Z,15.80
2019-06-07T20:13:36.130Z,15.70
2019-06-07T20:16:06.108Z,15.70
2019-06-07T20:18:37.079Z,15.70
2019-06-07T20:21:07.301Z,15.60
2019-06-07T20:23:37.439Z,15.60
2019-06-07T20:26:07.342Z,15.50
2019-06-07T20:28:38.785Z,15.50
2019-06-07T20:31:09.285Z,15.50
2019-06-07T20:33:39.297Z,15.30
2019-06-07T20:36:09.249Z,15.40
2019-06-07T20:38:39.196Z,15.30
2019-06-07T20:41:09.138Z,15.30
2019-06-07T20:43:39.284Z,15.30
2019-06-07T20:46:09.251Z,15.40
2019-06-07T20:48:39.441Z,15.30
2019-06-07T20:51:09.388Z,15.40
2019-06-07T20:53:39.592Z,15.40
2019-06-07T20:56:09.711Z,15.40
2019-06-07T20:58:41.216Z,15.30
2019-06-07T21:01:11.084Z,15.30
2019-06-07T21:03:41.046Z,15.00
2019-06-07T21:06:11.126Z,15.00
2019-06-07T21:08:41.149Z,14.90
2019-06-07T21:11:11.014Z,15.00
2019-06-07T21:13:40.961Z,14.70
2019-06-07T21:16:10.980Z,14.70
2019-06-07T21:18:40.930Z,14.80
2019-06-07T21:21:10.908Z,14.60
2019-06-07T21:23:41.175Z,14.60
2019-06-07T21:26:11.308Z,14.70
2019-06-07T21:28:41.233Z,14.70
2019-06-07T21:31:12.386Z,14.70
2019-06-07T21:33:42.398Z,14.80
2019-06-07T21:36:12.338Z,14.70
2019-06-07T21:38:42.316Z,14.80
2019-06-07T21:41:12.892Z,14.80
2019-06-07T21:43:43.157Z,14.90
2019-06-07T21:46:20.004Z,15.00
2019-06-07T21:48:45.153Z,15.00
2019-06-07T21:51:15.379Z,15.20
2019-06-07T21:53:45.386Z,14.90
2019-06-07T21:56:15.446Z,14.80
2019-06-07T21:58:46.424Z,14.90
2019-06-07T22:01:28.701Z,14.70
2019-06-07T22:03:58.836Z,14.70
2019-06-07T22:06:28.783Z,14.70
2019-06-07T22:08:58.826Z,14.80
2019-06-07T22:11:28.812Z,14.70
2019-06-07T22:13:59.430Z,14.70
2019-06-07T22:16:29.737Z,14.70
2019-06-07T22:18:59.607Z,14.70
2019-06-07T22:21:29.577Z,14.60
2019-06-07T22:23:59.919Z,14.50
2019-06-07T22:26:29.829Z,14.50
2019-06-07T22:28:59.865Z,14.40
2019-06-07T22:31:31.070Z,14.40
2019-06-07T22:34:01.492Z,14.20
2019-06-07T22:36:31.467Z,14.20
2019-06-07T22:39:01.536Z,14.10
2019-06-07T22:41:33.040Z,14.20
2019-06-07T22:44:03.086Z,14.10
2019-06-07T22:46:37.342Z,14.10
2019-06-07T22:49:04.912Z,14.00
2019-06-07T22:51:34.863Z,13.90
2019-06-07T22:54:04.941Z,13.90
2019-06-07T22:56:43.213Z,14.00
2019-06-07T22:59:16.761Z,14.10
2019-06-07T23:01:44.907Z,14.10
2019-06-07T23:04:14.853Z,14.20
2019-06-07T23:06:44.675Z,14.20
2019-06-07T23:09:14.950Z,14.20
2019-06-07T23:11:44.886Z,14.20
2019-06-07T23:14:15.938Z,14.30
2019-06-07T23:16:55.039Z,14.30
2019-06-07T23:19:18.297Z,14.30
2019-06-07T23:21:48.377Z,14.30
2019-06-07T23:24:20.139Z,14.20
2019-06-07T23:26:50.058Z,14.20
2019-06-07T23:29:20.728Z,14.20
2019-06-07T23:31:50.696Z,14.10
2019-06-07T23:34:21.039Z,14.10
2019-06-07T23:36:50.916Z,14.20
2019-06-07T23:39:22.369Z,14.20
2019-06-07T23:41:52.610Z,14.20
2019-06-07T23:44:22.525Z,14.30
2019-06-07T23:46:52.709Z,14.30
2019-06-07T23:49:22.930Z,14.30
2019-06-07T23:51:53.084Z,14.30
2019-06-07T23:54:23.047Z,14.30
2019-06-07T23:56:53.118Z,14.30
2019-06-07T23:59:23.432Z,14.40
